Time;durP1;ratioP1;P1;durP2;ratioP2;P2;SDS_P1;SDS_P2;PMS_P1;PMS_P2;Temp;Humidity;BMP_temperature;BMP_pressure;BME280_temperature;BME280_humidity;BME280_pressure;Samples;Min_cycle;Max_cycle;Signal;HPM_P1;HPM_P2
2022/02/22 00:01:13;;;;;;;;;12.00;8.75;;;;;10.65;56.64;101871.63;5062778;28;45377;-49
2022/02/22 00:03:38;;;;;;;;;14.25;6.75;;;;;10.63;56.57;101862.88;5062887;28;46477;-45
2022/02/22 00:06:04;;;;;;;;;12.00;10.50;;;;;10.62;56.48;101866.38;5062430;28;45446;-50
2022/02/22 00:08:30;;;;;;;;;15.75;6.75;;;;;10.60;56.51;101872.50;5061579;28;45755;-50
2022/02/22 00:10:56;;;;;;;;;11.00;8.75;;;;;10.56;56.70;101871.59;5062456;28;45284;-47
2022/02/22 00:13:22;;;;;;;;;11.50;7.75;;;;;10.53;56.78;101858.47;5062758;28;45916;-46
2022/02/22 00:15:47;;;;;;;;;11.25;8.50;;;;;10.55;56.66;101876.00;5062208;28;45370;-50
2022/02/22 00:18:12;;;;;;;;;12.00;9.25;;;;;10.53;56.61;101871.63;5061733;28;45368;-47
2022/02/22 00:20:38;;;;;;;;;17.00;13.00;;;;;10.52;56.93;101883.00;5062205;28;45290;-47
2022/02/22 00:23:05;;;;;;;;;13.75;8.25;;;;;10.50;56.80;101874.22;5070288;28;45340;-47
2022/02/22 00:25:31;;;;;;;;;14.50;7.25;;;;;10.43;56.78;101873.31;5062159;28;45400;-48
2022/02/22 00:27:56;;;;;;;;;10.00;7.00;;;;;10.45;56.57;101883.81;5061203;28;45297;-49
2022/02/22 00:30:22;;;;;;;;;15.50;9.00;;;;;10.43;56.72;101878.56;5062409;28;45232;-46
2022/02/22 00:32:47;;;;;;;;;19.50;9.00;;;;;10.40;56.75;101889.06;5062276;28;45164;-49
2022/02/22 00:35:12;;;;;;;;;11.75;7.50;;;;;10.39;56.86;101895.22;5062168;28;45156;-48
2022/02/22 00:37:39;;;;;;;;;8.75;7.25;;;;;10.36;56.86;101895.16;5062255;28;45416;-48
2022/02/22 00:40:06;;;;;;;;;21.00;9.50;;;;;10.33;56.86;101890.75;5060422;28;45237;-47
2022/02/22 00:42:32;;;;;;;;;14.00;8.25;;;;;10.32;56.68;101891.59;5061784;28;46563;-50
2022/02/22 00:44:57;;;;;;;;;16.25;10.50;;;;;10.30;56.80;101887.22;5062012;28;45308;-51
2022/02/22 00:47:22;;;;;;;;;14.50;8.25;;;;;10.26;56.90;101894.19;5062234;28;45438;-51
2022/02/22 00:49:48;;;;;;;;;13.75;9.00;;;;;10.23;56.94;101896.81;5062035;28;45305;-50
2022/02/22 00:52:13;;;;;;;;;14.75;10.00;;;;;10.20;56.88;101891.53;5061770;28;45357;-49
2022/02/22 00:54:39;;;;;;;;;13.00;8.75;;;;;10.17;57.09;101894.16;5061770;28;45488;-52
2022/02/22 00:57:04;;;;;;;;;12.50;7.75;;;;;10.13;57.06;101888.00;5061879;28;45233;-49
2022/02/22 00:59:29;;;;;;;;;14.00;6.25;;;;;10.12;56.99;101885.38;5061659;28;45477;-51
2022/02/22 01:01:55;;;;;;;;;15.00;9.75;;;;;10.09;57.01;101888.88;5061940;28;46260;-51
2022/02/22 01:04:20;;;;;;;;;17.00;7.25;;;;;10.07;57.29;101894.13;5060511;28;45304;-48
2022/02/22 01:06:46;;;;;;;;;15.50;8.00;;;;;10.05;57.20;101893.22;5061530;28;45421;-52
2022/02/22 01:09:13;;;;;;;;;13.25;7.75;;;;;10.00;57.13;101883.53;5061489;28;45451;-51
2022/02/22 01:11:40;;;;;;;;;11.50;7.50;;;;;10.03;57.04;101899.34;5061763;28;46033;-48
2022/02/22 01:14:06;;;;;;;;;13.00;7.75;;;;;10.02;57.30;101894.94;5061497;28;45275;-50
2022/02/22 01:16:32;;;;;;;;;16.75;11.50;;;;;9.97;57.11;101892.28;5060527;28;45288;-49
2022/02/22 01:18:57;;;;;;;;;14.50;8.50;;;;;9.96;57.14;101905.41;5060069;28;45552;-52
2022/02/22 01:21:23;;;;;;;;;13.25;7.75;;;;;9.94;57.22;101910.66;5066166;28;45385;-51
2022/02/22 01:23:48;;;;;;;;;14.75;8.50;;;;;9.91;57.42;101908.88;5063562;28;45244;-49
2022/02/22 01:26:13;;;;;;;;;9.75;6.00;;;;;9.90;57.37;101914.13;5061810;28;45410;-50
2022/02/22 01:28:39;;;;;;;;;14.75;11.75;;;;;9.88;57.21;101910.59;5061448;28;45308;-46
2022/02/22 01:31:04;;;;;;;;;14.50;7.25;;;;;9.87;57.31;101920.25;5061437;28;46270;-47
2022/02/22 01:33:30;;;;;;;;;18.25;8.50;;;;;9.82;57.46;101911.41;5061224;28;45268;-52
2022/02/22 01:35:55;;;;;;;;;14.25;6.75;;;;;9.81;57.51;101904.44;5061414;28;45257;-51
2022/02/22 01:38:20;;;;;;;;;9.25;6.25;;;;;9.78;57.59;101909.66;5061257;28;45647;-51
2022/02/22 01:40:46;;;;;;;;;12.00;7.25;;;;;9.74;57.62;101907.88;5061177;28;47073;-51
2022/02/22 01:43:11;;;;;;;;;13.75;9.25;;;;;9.74;57.48;101916.63;5061198;28;45282;-48
2022/02/22 01:45:37;;;;;;;;;14.75;7.25;;;;;9.74;57.44;101907.88;5061581;28;45320;-51
2022/02/22 01:48:03;;;;;;;;;8.75;4.25;;;;;9.73;57.64;101922.72;5061158;28;45498;-48
2022/02/22 01:50:29;;;;;;;;;16.00;10.00;;;;;9.71;57.72;101920.97;5061001;28;45356;-49
2022/02/22 01:52:54;;;;;;;;;12.75;8.00;;;;;9.69;57.70;101912.22;5059726;28;45267;-50
2022/02/22 01:55:20;;;;;;;;;16.00;9.00;;;;;9.65;57.60;101916.56;5060950;28;45291;-49
2022/02/22 01:57:46;;;;;;;;;12.00;8.00;;;;;9.65;57.56;101929.69;5061007;28;45375;-48
2022/02/22 02:00:12;;;;;;;;;10.50;7.00;;;;;9.64;57.53;101922.66;5060806;28;46883;-49
2022/02/22 02:02:38;;;;;;;;;17.00;8.00;;;;;9.61;57.60;101920.03;5060912;28;45335;-47
2022/02/22 02:05:05;;;;;;;;;15.00;11.50;;;;;9.62;57.79;101932.25;5061169;28;45437;-55
2022/02/22 02:07:30;;;;;;;;;10.00;7.50;;;;;9.61;57.17;101933.16;5060563;28;45441;-47
2022/02/22 02:09:56;;;;;;;;;11.25;7.25;;;;;9.60;57.80;101931.38;5059414;28;45298;-50
2022/02/22 02:12:21;;;;;;;;;15.25;5.50;;;;;9.58;57.73;101933.09;5060735;28;45241;-49
2022/02/22 02:14:47;;;;;;;;;12.00;7.25;;;;;9.56;57.77;101927.00;5061046;28;45224;-49
2022/02/22 02:17:12;;;;;;;;;13.50;8.00;;;;;9.54;57.78;101926.94;5060855;28;45216;-52
2022/02/22 02:19:41;;;;;;;;;16.50;10.50;;;;;9.52;57.88;101926.06;5060510;28;46100;-48
2022/02/22 02:22:06;;;;;;;;;13.25;8.75;;;;;9.50;57.87;101926.94;5067861;28;45360;-50
2022/02/22 02:24:32;;;;;;;;;10.50;7.50;;;;;9.54;57.75;101931.31;5059557;28;45545;-48
2022/02/22 02:26:57;;;;;;;;;14.00;7.25;;;;;9.53;57.88;101937.44;5060554;28;45559;-49
2022/02/22 02:29:26;;;;;;;;;11.00;8.25;;;;;9.52;57.69;101943.53;5060598;28;46193;-47
2022/02/22 02:31:52;;;;;;;;;14.25;11.25;;;;;9.50;57.92;101950.53;5060364;28;45292;-52
2022/02/22 02:34:19;;;;;;;;;11.00;6.50;;;;;9.50;57.96;101950.53;5060626;28;45303;-52
2022/02/22 02:36:45;;;;;;;;;15.00;8.25;;;;;9.49;57.77;101957.50;5060057;28;45439;-49
2022/02/22 02:39:12;;;;;;;;;12.75;7.75;;;;;9.48;57.78;101952.25;5060153;28;46064;-50
2022/02/22 02:41:38;;;;;;;;;8.00;8.00;;;;;9.46;58.00;101952.25;5060178;28;45275;-50
2022/02/22 02:44:07;;;;;;;;;16.75;10.50;;;;;9.44;57.82;101944.34;5060404;28;45481;-48
2022/02/22 02:46:33;;;;;;;;;12.75;7.25;;;;;9.41;58.03;101939.09;5060172;28;45641;-46
2022/02/22 02:48:59;;;;;;;;;17.25;7.25;;;;;9.40;58.07;101934.69;5060273;28;46299;-50
2022/02/22 02:51:26;;;;;;;;;6.25;5.00;;;;;9.39;58.12;101939.94;5059813;28;45748;-49
2022/02/22 02:53:52;;;;;;;;;16.50;10.00;;;;;9.38;57.80;101951.28;5060421;28;45405;-46
2022/02/22 02:56:23;;;;;;;;;12.75;7.75;;;;;9.36;58.10;101960.91;5059991;28;45477;-50
2022/02/22 02:58:53;;;;;;;;;13.00;7.00;;;;;9.34;58.13;101976.59;5060016;28;46087;-49
2022/02/22 03:01:19;;;;;;;;;14.75;10.00;;;;;9.32;58.24;101975.72;5058578;28;45331;-50
2022/02/22 03:03:44;;;;;;;;;10.25;7.25;;;;;9.31;58.25;101973.06;5060192;28;45260;-52
2022/02/22 03:06:10;;;;;;;;;12.25;11.00;;;;;9.23;58.10;101970.38;5059548;28;45379;-49
2022/02/22 03:08:35;;;;;;;;;12.75;8.00;;;;;9.29;58.26;101980.06;5059807;28;45339;-49
2022/02/22 03:11:00;;;;;;;;;13.00;9.00;;;;;9.29;58.09;101980.94;5059795;28;45341;-50
2022/02/22 03:13:26;;;;;;;;;13.25;8.75;;;;;9.28;58.03;101981.78;5060132;28;45595;-50
2022/02/22 03:15:51;;;;;;;;;18.25;12.00;;;;;9.26;58.16;101986.16;5058542;28;45248;-46
2022/02/22 03:18:16;;;;;;;;;17.25;11.75;;;;;9.26;58.15;101983.53;5059849;28;46122;-50
2022/02/22 03:20:42;;;;;;;;;16.25;6.25;;;;;9.24;58.21;101970.41;5059131;28;45428;-50
2022/02/22 03:23:07;;;;;;;;;11.00;4.75;;;;;9.24;58.19;101962.53;5067792;28;45573;-50
2022/02/22 03:25:33;;;;;;;;;12.00;6.25;;;;;9.24;58.32;101965.16;5059521;28;45430;-50
2022/02/22 03:28:00;;;;;;;;;16.25;6.50;;;;;9.22;58.03;101961.63;5059772;28;45215;-51
2022/02/22 03:30:28;;;;;;;;;18.00;10.75;;;;;9.20;58.16;101965.97;5059677;28;45572;-51
2022/02/22 03:32:53;;;;;;;;;17.25;7.50;;;;;9.20;58.11;101972.97;5059693;28;45468;-51
2022/02/22 03:35:19;;;;;;;;;16.50;10.75;;;;;9.16;58.33;101963.31;5059224;28;45226;-49
2022/02/22 03:37:44;;;;;;;;;17.00;10.25;;;;;9.18;58.12;101969.44;5059723;28;45884;-49
2022/02/22 03:40:10;;;;;;;;;17.50;9.75;;;;;9.17;58.22;101967.66;5059277;28;45303;-52
2022/02/22 03:42:40;;;;;;;;;16.50;10.00;;;;;9.16;58.58;101972.03;5059774;28;45247;-49
2022/02/22 03:45:05;;;;;;;;;11.50;9.75;;;;;9.14;58.36;101970.28;5059531;28;45277;-51
2022/02/22 03:47:31;;;;;;;;;14.50;11.25;;;;;9.13;58.39;101969.38;5059423;28;45389;-52
2022/02/22 03:49:56;;;;;;;;;11.75;9.00;;;;;9.16;58.48;101979.06;5059384;28;45354;-49
2022/02/22 03:52:21;;;;;;;;;13.00;7.50;;;;;9.16;58.45;101982.53;5059433;28;45237;-50
2022/02/22 03:54:47;;;;;;;;;15.25;11.50;;;;;9.17;58.29;101975.53;5059195;28;45313;-52
2022/02/22 03:57:12;;;;;;;;;15.00;8.75;;;;;9.15;58.56;101972.91;5059394;28;45327;-50
2022/02/22 03:59:37;;;;;;;;;16.50;11.50;;;;;9.15;58.57;101972.03;5057811;28;45471;-50
2022/02/22 04:02:03;;;;;;;;;17.50;11.50;;;;;9.17;58.43;101983.41;5059837;28;45330;-51
2022/02/22 04:04:28;;;;;;;;;14.75;11.50;;;;;9.16;58.67;101977.28;5059257;28;45417;-51
2022/02/22 04:06:54;;;;;;;;;15.00;8.25;;;;;9.18;58.62;101975.56;5058887;28;45990;-49
2022/02/22 04:09:19;;;;;;;;;13.50;10.25;;;;;9.20;58.35;101981.69;5059020;28;45392;-51
2022/02/22 04:11:44;;;;;;;;;22.00;11.50;;;;;9.21;58.49;101974.72;5059388;28;45482;-48
2022/02/22 04:14:10;;;;;;;;;15.00;10.00;;;;;9.21;58.36;101964.25;5059132;28;45315;-50
2022/02/22 04:16:35;;;;;;;;;13.50;8.00;;;;;9.22;58.40;101969.50;5059122;28;47207;-49
2022/02/22 04:19:00;;;;;;;;;17.25;12.00;;;;;9.23;58.56;101962.50;5059001;28;45307;-47
2022/02/22 04:21:26;;;;;;;;;15.25;11.50;;;;;9.23;58.48;101963.38;5064330;28;45192;-47
2022/02/22 04:23:51;;;;;;;;;14.50;11.75;;;;;9.22;58.46;101955.47;5061319;28;45214;-49
2022/02/22 04:26:16;;;;;;;;;18.75;11.25;;;;;9.27;58.40;101969.56;5058948;28;45337;-49
2022/02/22 04:28:42;;;;;;;;;12.50;11.00;;;;;9.28;58.72;101968.66;5058877;28;45247;-48
2022/02/22 04:31:07;;;;;;;;;18.50;9.25;;;;;9.29;58.74;101973.06;5059131;28;45394;-50
2022/02/22 04:33:32;;;;;;;;;15.25;12.25;;;;;9.31;58.58;101970.44;5061623;28;45271;-50
2022/02/22 04:35:58;;;;;;;;;14.75;8.50;;;;;9.32;58.68;101978.34;5062053;28;45227;-47
2022/02/22 04:38:23;;;;;;;;;19.00;13.25;;;;;9.33;58.66;101990.56;5062211;28;45203;-51
2022/02/22 04:40:48;;;;;;;;;15.25;11.00;;;;;9.34;58.44;101987.09;5062307;28;45461;-50
2022/02/22 04:43:14;;;;;;;;;19.25;12.25;;;;;9.35;58.69;101983.63;5062094;28;45213;-49
2022/02/22 04:45:39;;;;;;;;;12.00;7.25;;;;;9.37;58.75;101987.16;5062251;28;45246;-51
2022/02/22 04:48:05;;;;;;;;;10.00;7.75;;;;;9.39;58.57;101988.03;5061978;28;45227;-49
2022/02/22 04:50:31;;;;;;;;;14.00;7.75;;;;;9.42;58.49;101985.44;5062064;28;45408;-50
2022/02/22 04:52:56;;;;;;;;;14.25;11.75;;;;;9.43;58.52;101986.31;5061887;28;45577;-47
2022/02/22 04:55:22;;;;;;;;;13.25;10.50;;;;;9.44;58.74;101991.56;5061844;28;46063;-50
2022/02/22 04:57:47;;;;;;;;;17.25;8.25;;;;;9.45;58.74;101984.59;5061889;28;45244;-50
2022/02/22 05:00:14;;;;;;;;;15.50;11.75;;;;;9.45;58.74;101987.22;5060829;28;45411;-51
2022/02/22 05:02:40;;;;;;;;;18.25;10.00;;;;;9.43;58.62;101995.09;5061853;28;45330;-51
2022/02/22 05:05:06;;;;;;;;;13.50;9.00;;;;;9.44;58.72;101996.81;5061790;28;45254;-50
2022/02/22 05:07:31;;;;;;;;;21.50;13.25;;;;;9.44;58.70;101996.81;5061460;28;45307;-50
2022/02/22 05:09:57;;;;;;;;;15.50;7.25;;;;;9.44;58.73;101990.69;5061790;28;45166;-51
2022/02/22 05:12:22;;;;;;;;;12.25;10.00;;;;;9.47;58.75;101993.38;5061712;28;45204;-50
2022/02/22 05:14:47;;;;;;;;;11.75;8.00;;;;;9.47;58.55;101998.63;5061670;28;45236;-47
2022/02/22 05:17:13;;;;;;;;;18.25;11.00;;;;;9.48;58.65;101999.50;5061753;28;45375;-49
2022/02/22 05:19:38;;;;;;;;;24.75;13.50;;;;;9.49;58.48;101996.00;5061684;28;45228;-48
2022/02/22 05:22:05;;;;;;;;;16.50;11.25;;;;;9.49;58.79;101996.00;5069280;28;45182;-49
2022/02/22 05:24:30;;;;;;;;;13.25;9.25;;;;;9.48;58.75;101995.13;5061410;28;46155;-50
2022/02/22 05:26:56;;;;;;;;;18.00;8.75;;;;;9.46;58.49;101995.97;5060056;28;45236;-47
2022/02/22 05:29:21;;;;;;;;;11.75;7.75;;;;;9.44;58.81;101990.69;5061518;28;45310;-49
2022/02/22 05:31:47;;;;;;;;;10.75;10.75;;;;;9.43;58.51;101987.22;5061365;28;45460;-46
2022/02/22 05:34:12;;;;;;;;;18.25;12.00;;;;;9.40;58.59;101986.28;5061324;28;45331;-51
2022/02/22 05:36:37;;;;;;;;;19.75;9.50;;;;;9.38;58.74;101993.25;5061120;28;45386;-52
2022/02/22 05:39:05;;;;;;;;;18.75;12.75;;;;;9.36;58.56;101995.00;5060060;28;45260;-51
2022/02/22 05:41:30;;;;;;;;;14.75;10.00;;;;;9.34;58.58;101991.47;5061229;28;45273;-47
2022/02/22 05:43:55;;;;;;;;;16.25;12.00;;;;;9.30;58.74;101993.19;5061044;28;45742;-47
2022/02/22 05:46:21;;;;;;;;;19.25;9.75;;;;;9.27;58.60;102001.91;5061317;28;45382;-51
2022/02/22 05:48:46;;;;;;;;;14.50;10.75;;;;;9.25;58.51;101995.75;5061418;28;45430;-48
2022/02/22 05:51:12;;;;;;;;;25.25;12.75;;;;;9.24;58.68;102000.97;5060861;28;45194;-47
2022/02/22 05:53:39;;;;;;;;;15.50;11.00;;;;;9.19;58.78;102000.91;5061165;28;45338;-50
2022/02/22 05:56:05;;;;;;;;;16.50;10.75;;;;;9.17;58.94;101999.13;5060834;28;45414;-51
2022/02/22 05:58:31;;;;;;;;;14.50;10.00;;;;;9.18;58.87;102001.81;5061092;28;45379;-52
2022/02/22 06:00:56;;;;;;;;;18.00;11.00;;;;;9.14;58.94;101999.13;5060875;28;45561;-50
2022/02/22 06:03:21;;;;;;;;;12.50;9.75;;;;;9.10;58.73;101990.34;5060900;28;46426;-50
2022/02/22 06:05:47;;;;;;;;;19.50;10.75;;;;;9.11;58.84;101987.72;5060686;28;45327;-52
2022/02/22 06:08:12;;;;;;;;;15.75;8.75;;;;;9.09;58.88;101985.94;5060914;28;45350;-49
2022/02/22 06:10:38;;;;;;;;;14.75;12.75;;;;;9.05;58.75;101984.16;5060719;28;45565;-52
2022/02/22 06:13:04;;;;;;;;;17.75;12.75;;;;;9.06;58.60;101985.91;5060846;28;45404;-52
2022/02/22 06:15:29;;;;;;;;;14.25;10.00;;;;;9.06;58.78;101985.91;5060694;28;45361;-51
2022/02/22 06:17:54;;;;;;;;;23.25;14.25;;;;;9.04;58.69;101988.53;5059501;28;45502;-52
2022/02/22 06:20:20;;;;;;;;;20.75;12.25;;;;;9.05;58.92;101984.16;5060328;28;45629;-51
2022/02/22 06:22:45;;;;;;;;;24.75;16.50;;;;;9.05;58.59;101978.91;5067386;28;46082;-51
2022/02/22 06:25:11;;;;;;;;;31.50;26.25;;;;;9.04;58.87;101988.53;5060372;28;45443;-49
2022/02/22 06:27:48;;;;;;;;;49.00;32.50;;;;;9.04;58.76;101985.00;5059394;28;45305;-56
2022/02/22 06:30:14;;;;;;;;;19.00;14.25;;;;;9.05;58.77;101990.25;5060445;28;45252;-51
2022/02/22 06:32:39;;;;;;;;;16.75;12.50;;;;;9.05;58.76;101995.50;5058949;28;46225;-50
2022/02/22 06:35:05;;;;;;;;;24.00;15.00;;;;;9.03;58.83;101991.13;5060259;28;45319;-50
2022/02/22 06:37:31;;;;;;;;;20.25;13.00;;;;;9.02;58.78;101999.84;5060537;28;45438;-51
2022/02/22 06:39:58;;;;;;;;;10.75;8.50;;;;;8.99;58.75;101991.94;5060170;28;45305;-51
2022/02/22 06:42:23;;;;;;;;;18.25;11.75;;;;;8.97;58.96;101999.81;5059179;28;47455;-51
2022/02/22 06:44:49;;;;;;;;;19.50;10.00;;;;;8.97;58.74;102002.41;5058832;28;45417;-51
2022/02/22 06:47:14;;;;;;;;;19.50;13.00;;;;;8.94;58.68;101990.16;5060591;28;45295;-47
2022/02/22 06:49:39;;;;;;;;;22.25;15.75;;;;;8.94;58.74;101989.25;5060347;28;45398;-50
2022/02/22 06:52:05;;;;;;;;;15.50;12.00;;;;;8.94;58.87;101997.13;5060040;28;46278;-49
2022/02/22 06:54:30;;;;;;;;;16.25;12.00;;;;;8.93;58.84;101995.34;5059349;28;45279;-52
2022/02/22 06:56:56;;;;;;;;;15.00;10.25;;;;;8.91;58.99;101999.72;5060512;28;45236;-49
2022/02/22 06:59:21;;;;;;;;;22.50;13.00;;;;;8.90;58.72;102005.81;5059827;28;45551;-49
2022/02/22 07:01:47;;;;;;;;;21.25;15.25;;;;;8.90;58.86;102005.81;5051617;28;46249;-51
2022/02/22 07:04:12;;;;;;;;;15.75;12.75;;;;;8.88;58.95;102005.81;5048486;28;45223;-51
2022/02/22 07:06:38;;;;;;;;;18.50;10.75;;;;;8.88;58.94;102007.53;5059199;28;45297;-48
2022/02/22 07:09:03;;;;;;;;;20.75;7.75;;;;;8.85;58.93;102012.75;5059688;28;45181;-52
2022/02/22 07:11:30;;;;;;;;;11.75;9.75;;;;;8.82;59.20;102008.34;5053013;28;46395;-48
2022/02/22 07:13:55;;;;;;;;;12.25;9.25;;;;;8.80;58.84;102017.91;5059721;28;45330;-49
2022/02/22 07:16:21;;;;;;;;;14.25;12.50;;;;;8.80;58.93;102017.91;5059558;28;45825;-49
2022/02/22 07:18:46;;;;;;;;;15.75;11.00;;;;;8.77;59.14;101999.53;5058675;28;45624;-48
2022/02/22 07:21:11;;;;;;;;;20.00;13.25;;;;;8.79;58.92;102000.41;5062710;28;45390;-51
2022/02/22 07:23:37;;;;;;;;;22.25;12.00;;;;;8.77;59.22;101997.78;5060606;28;45304;-51
2022/02/22 07:26:02;;;;;;;;;17.75;12.00;;;;;8.75;59.23;102002.16;5059738;28;45303;-48
2022/02/22 07:28:28;;;;;;;;;17.50;12.25;;;;;8.66;59.14;101991.53;5059747;28;45235;-48
2022/02/22 07:30:53;;;;;;;;;26.75;13.25;;;;;8.75;58.89;101996.91;5059144;28;45368;-51
2022/02/22 07:33:19;;;;;;;;;18.75;11.75;;;;;8.75;59.10;102004.78;5059461;28;45422;-56
2022/02/22 07:35:44;;;;;;;;;20.75;11.75;;;;;8.74;59.21;102003.00;5057880;28;45836;-48
2022/02/22 07:38:09;;;;;;;;;15.25;10.25;;;;;8.78;59.30;102003.94;5058368;28;45923;-51
2022/02/22 07:40:35;;;;;;;;;19.50;12.00;;;;;8.76;59.42;102003.88;5057491;28;45457;-50
2022/02/22 07:43:01;;;;;;;;;17.50;7.00;;;;;8.74;59.46;102009.97;5059852;28;45304;-47
2022/02/22 07:45:27;;;;;;;;;14.75;10.75;;;;;8.72;59.35;102004.72;5059563;28;45162;-47
2022/02/22 07:47:53;;;;;;;;;19.75;13.00;;;;;8.71;59.21;101999.44;5059824;28;45303;-48
2022/02/22 07:50:18;;;;;;;;;17.50;11.75;;;;;8.72;59.20;101996.84;5059072;28;46325;-47
2022/02/22 07:52:44;;;;;;;;;18.25;10.50;;;;;8.74;59.36;102007.34;5059630;28;45454;-48
2022/02/22 07:55:09;;;;;;;;;15.25;11.00;;;;;8.73;59.37;102010.81;5059381;28;45229;-50
2022/02/22 07:57:35;;;;;;;;;18.00;14.50;;;;;8.71;59.46;101999.44;5058374;28;45273;-48
2022/02/22 08:00:00;;;;;;;;;19.00;12.00;;;;;8.75;59.54;101996.91;5059074;28;46103;-48
2022/02/22 08:02:26;;;;;;;;;21.00;13.00;;;;;8.74;59.56;102003.00;5059230;28;45366;-49
2022/02/22 08:04:51;;;;;;;;;12.25;9.00;;;;;8.74;59.79;102007.34;5059329;28;45560;-51
2022/02/22 08:07:20;;;;;;;;;18.75;14.75;;;;;8.72;59.77;101996.84;5060022;28;45359;-50
2022/02/22 08:09:46;;;;;;;;;18.25;14.25;;;;;8.69;59.71;101994.19;5062213;28;47156;-50
2022/02/22 08:12:11;;;;;;;;;21.75;12.50;;;;;8.67;59.79;101988.03;5062946;28;45243;-52
2022/02/22 08:14:36;;;;;;;;;19.75;14.00;;;;;8.67;59.85;101987.19;5062722;28;45610;-50
2022/02/22 08:17:02;;;;;;;;;20.75;13.75;;;;;8.71;59.61;101992.47;5063025;28;45403;-50
2022/02/22 08:19:28;;;;;;;;;20.50;16.50;;;;;8.74;59.86;102002.09;5061069;28;47282;-51
2022/02/22 08:21:57;;;;;;;;;25.75;18.00;;;;;8.76;60.08;101992.53;5062630;28;45180;-51
2022/02/22 08:24:24;;;;;;;;;23.25;13.00;;;;;8.81;59.69;101992.59;5062461;28;45339;-51
2022/02/22 08:26:56;;;;;;;;;19.75;12.50;;;;;8.82;59.79;101997.84;5062636;28;45322;-50
2022/02/22 08:29:23;;;;;;;;;20.75;13.25;;;;;8.84;60.11;101985.66;5062192;28;46454;-50
2022/02/22 08:31:49;;;;;;;;;21.25;13.75;;;;;8.88;59.94;101991.78;5062532;28;45354;-48
2022/02/22 08:34:15;;;;;;;;;21.00;15.00;;;;;8.88;60.12;101991.78;5062620;28;45355;-50
2022/02/22 08:36:40;;;;;;;;;15.75;12.75;;;;;8.91;60.13;101997.97;5062161;28;45319;-50
2022/02/22 08:39:06;;;;;;;;;23.25;12.25;;;;;8.95;60.27;102012.00;5062073;28;45482;-51
2022/02/22 08:41:32;;;;;;;;;15.75;10.50;;;;;8.97;60.37;102007.66;5062329;28;45484;-52
2022/02/22 08:43:57;;;;;;;;;12.50;9.50;;;;;8.96;60.38;101995.41;5062340;28;45171;-48
2022/02/22 08:46:23;;;;;;;;;13.50;9.50;;;;;8.96;60.32;101989.31;5061112;28;45275;-50
2022/02/22 08:48:48;;;;;;;;;19.00;11.25;;;;;9.01;60.53;101992.84;5062210;28;46253;-52
2022/02/22 08:51:14;;;;;;;;;12.00;10.00;;;;;9.03;60.20;101983.25;5061878;28;45418;-50
2022/02/22 08:53:39;;;;;;;;;23.00;13.00;;;;;9.03;60.47;101981.53;5061027;28;45348;-49
2022/02/22 08:56:08;;;;;;;;;17.25;11.00;;;;;9.06;60.34;101980.69;5062010;28;45247;-49
2022/02/22 08:58:34;;;;;;;;;23.50;16.00;;;;;9.11;60.29;101973.75;5062059;28;46195;-47
2022/02/22 09:00:59;;;;;;;;;19.00;12.50;;;;;9.11;60.36;101979.84;5061897;28;45323;-53
2022/02/22 09:03:25;;;;;;;;;21.25;16.50;;;;;9.13;60.18;101973.75;5068119;28;45467;-50
2022/02/22 09:05:51;;;;;;;;;23.50;14.25;;;;;9.16;60.67;101966.81;5061747;28;45490;-48
2022/02/22 09:08:17;;;;;;;;;15.00;8.75;;;;;9.20;60.33;101968.59;5061544;28;46372;-50
2022/02/22 09:10:45;;;;;;;;;14.50;12.50;;;;;9.19;60.43;101969.44;5061452;28;45220;-50
2022/02/22 09:13:10;;;;;;;;;14.50;12.00;;;;;9.25;60.51;101973.91;5061994;28;45448;-48
2022/02/22 09:15:37;;;;;;;;;22.00;14.00;;;;;9.26;60.46;101968.66;5061717;28;45387;-48
2022/02/22 09:18:02;;;;;;;;;17.50;12.25;;;;;9.30;60.62;101955.59;5061179;28;45541;-51
2022/02/22 09:20:28;;;;;;;;;21.50;14.75;;;;;9.33;60.73;101963.47;5061249;28;45264;-52
2022/02/22 09:22:53;;;;;;;;;19.75;13.50;;;;;9.35;60.84;101957.38;5060735;28;45743;-52
2022/02/22 09:25:20;;;;;;;;;15.75;10.50;;;;;9.38;60.64;101957.44;5061535;28;45341;-51
2022/02/22 09:27:46;;;;;;;;;21.25;14.25;;;;;9.43;60.72;101947.84;5061692;28;46258;-52
2022/02/22 09:30:15;;;;;;;;;12.25;10.25;;;;;9.44;60.70;101954.84;5061334;28;45243;-51
2022/02/22 09:32:43;;;;;;;;;15.00;11.50;;;;;9.47;60.82;101964.50;5061661;28;45327;-49
2022/02/22 09:35:09;;;;;;;;;15.50;12.50;;;;;9.50;60.73;101963.66;5061425;28;45450;-52
2022/02/22 09:37:34;;;;;;;;;16.50;10.00;;;;;9.50;60.80;101955.78;5061435;28;45494;-52
2022/02/22 09:40:00;;;;;;;;;19.50;13.50;;;;;9.52;61.07;101959.28;5061136;28;45347;-49
2022/02/22 09:42:26;;;;;;;;;14.75;11.00;;;;;9.55;60.93;101954.94;5061601;28;45296;-50
2022/02/22 09:44:52;;;;;;;;;15.75;12.25;;;;;9.55;61.19;101951.47;5061332;28;45570;-51
2022/02/22 09:47:18;;;;;;;;;13.00;10.50;;;;;9.63;60.93;101959.41;5061368;28;46395;-50
2022/02/22 09:49:43;;;;;;;;;19.50;11.00;;;;;9.63;60.93;101952.41;5061148;28;45204;-50
2022/02/22 09:52:09;;;;;;;;;21.50;13.50;;;;;9.69;61.23;101952.44;5061201;28;45219;-52
2022/02/22 09:54:35;;;;;;;;;14.75;11.25;;;;;9.70;60.86;101937.59;5061062;28;45542;-50
2022/02/22 09:57:00;;;;;;;;;16.25;10.75;;;;;9.73;61.12;101927.13;5061104;28;46734;-51
2022/02/22 09:59:26;;;;;;;;;18.00;11.75;;;;;9.71;61.27;101919.22;5060905;28;45342;-52
2022/02/22 10:01:54;;;;;;;;;16.50;9.25;;;;;9.77;61.30;101905.25;5067916;28;45552;-49
2022/02/22 10:04:20;;;;;;;;;15.25;9.25;;;;;9.80;61.58;101902.69;5059822;28;45418;-52
2022/02/22 10:06:45;;;;;;;;;11.50;8.50;;;;;9.79;61.32;101887.78;5060578;28;45335;-51
2022/02/22 10:09:10;;;;;;;;;13.50;7.50;;;;;9.88;61.48;101900.97;5060815;28;45240;-50
2022/02/22 10:11:53;;;;;;;;;13.00;7.75;;;;;9.91;61.71;101890.50;5060972;28;45327;-53
2022/02/22 10:14:24;;;;;;;;;14.25;7.75;;;;;9.96;61.64;101887.91;5060818;28;45327;-51
2022/02/22 10:16:53;;;;;;;;;15.75;9.75;;;;;10.01;61.51;101885.31;5060655;28;46305;-48
2022/02/22 10:19:20;;;;;;;;;12.25;7.50;;;;;10.06;61.74;101896.72;5060482;28;45375;-52
2022/02/22 10:21:47;;;;;;;;;12.75;8.00;;;;;10.11;61.78;101886.25;5060463;28;45311;-50
2022/02/22 10:24:16;;;;;;;;;14.50;7.00;;;;;10.14;61.62;101887.16;5059338;28;45497;-50
2022/02/22 10:26:42;;;;;;;;;13.25;8.75;;;;;10.21;61.64;101895.94;5060314;28;45485;-47
2022/02/22 10:29:19;;;;;;;;;14.50;9.25;;;;;10.25;61.66;101901.22;5059976;28;45331;-52
2022/02/22 10:31:47;;;;;;;;;14.25;9.00;;;;;10.30;61.56;101906.50;5060354;28;45283;-49
2022/02/22 10:34:13;;;;;;;;;13.00;10.00;;;;;10.36;61.67;101898.69;5060597;28;45276;-48
2022/02/22 10:36:41;;;;;;;;;10.50;7.00;;;;;10.39;61.66;101903.94;5058635;28;46841;-51
2022/02/22 10:39:09;;;;;;;;;14.75;7.75;;;;;10.44;61.91;101922.38;5060232;28;45373;-49
2022/02/22 10:41:43;;;;;;;;;14.50;8.50;;;;;10.45;62.06;101925.88;5060433;28;45307;-47
2022/02/22 10:44:11;;;;;;;;;10.00;6.75;;;;;10.50;61.82;101926.78;5059038;28;45726;-48
2022/02/22 10:46:45;;;;;;;;;11.00;8.75;;;;;10.55;61.83;101935.56;5059067;28;48398;-51
2022/02/22 10:49:13;;;;;;;;;9.75;8.25;;;;;10.60;61.89;101949.59;5058950;28;45426;-52
2022/02/22 10:51:51;;;;;;;;;7.50;7.25;;;;;10.63;61.81;101960.16;5058829;28;45268;-50
2022/02/22 10:54:21;;;;;;;;;15.50;8.25;;;;;10.61;61.89;101948.72;5060172;28;45461;-49
2022/02/22 10:56:47;;;;;;;;;15.00;9.00;;;;;10.65;61.88;101949.63;5060214;28;45523;-51
2022/02/22 10:59:13;;;;;;;;;9.75;8.00;;;;;10.68;62.03;101940.00;5060066;28;45252;-53
2022/02/22 11:01:39;;;;;;;;;11.50;7.75;;;;;10.70;61.93;101929.50;5065061;28;45441;-51
2022/02/22 11:04:06;;;;;;;;;7.50;5.75;;;;;10.73;61.91;101930.41;5062017;28;45256;-47
2022/02/22 11:06:32;;;;;;;;;12.00;7.00;;;;;10.73;61.89;101925.13;5059844;28;45387;-48
2022/02/22 11:08:58;;;;;;;;;8.50;5.25;;;;;10.76;62.05;101921.63;5059648;28;45370;-49
2022/02/22 11:11:27;;;;;;;;;9.50;9.00;;;;;10.78;62.05;101934.78;5059970;28;45339;-48
2022/02/22 11:13:58;;;;;;;;;9.25;5.25;;;;;10.80;62.13;101931.28;5059545;28;45501;-51